Accueil
METAR-TAF:

METAR-TAF

Aéroports :

Aéroport Adolfo-Suárez de Madrid-Barajas

Madrid, Espagne

latitude: 40-27N, longitude: 003-33W, altitude: 609 m

Observation

Le bulletin a été fait il y a 32 minutes, à 08:00 UTC
Vent 1 kt de direction variable
Température 3°C
Humidité 100%
Pression 1023 hPa
Visibilité 10 km ou plus
Quelques nuages à une hauteur de 7500 ft

METAR: LEMD 300800Z VRB01KT 9999 FEW075 03/03 Q1023 NOSIG

Heure: 09:32 (08:32 UTC)

Prévision

Le bulletin a été fait il y a 3 heures et 32 minutes, à 05:00 UTC
Prévision valable du 30 à 06 UTC au 01 à 12 UTC
Vent 4 kt de direction variable
Visibilité 10 km ou plus
pas de nuages en-dessous de 1500 mètres et pas de cumulonimbus.

TAF: LEMD 300500Z 3006/0112 VRB04KT CAVOK TX14/3015Z TN02/0106Z

Observations et prévisions météorologiques de plus de 4000 aéroports (messages METAR et TAF).

Les stations disponibles sont représentées par des disques jaunes et rouges sur la carte.

Passer la souris dessus pour voir le nom de la station.

Cliquer dessus pour voir les observations et prévisions météorologiques.

Pour changer de carte: cliquez sur les boutons verts avec une croix noire pour zoomer, sur le bouton vert avec un tiret pour effectuer un zoom arrière, ou sur les flèches vertes pour les cartes adjacentes.


METAR-TAF: